Time;durP1;ratioP1;P1;durP2;ratioP2;P2;SDS_P1;SDS_P2;PMS_P1;PMS_P2;Temp;Humidity;BMP_temperature;BMP_pressure;BME280_temperature;BME280_humidity;BME280_pressure;Samples;Min_cycle;Max_cycle;Signal;HPM_P1;HPM_P2
2023/06/26 00:02:15;;;;;;;11.70;10.50;;;21.90;99.90;;;;;;5045392;28;20203;-61
2023/06/26 00:04:42;;;;;;;12.93;11.55;;;22.00;99.90;;;;;;5047471;28;20217;-61
2023/06/26 00:07:07;;;;;;;16.23;13.00;;;21.90;99.90;;;;;;5047144;28;20210;-60
2023/06/26 00:09:33;;;;;;;14.00;12.33;;;21.90;99.90;;;;;;5047240;28;20323;-61
2023/06/26 00:11:59;;;;;;;13.20;11.50;;;21.90;99.90;;;;;;5047500;28;20656;-61
2023/06/26 00:14:25;;;;;;;13.90;12.03;;;21.90;99.90;;;;;;5044745;28;20569;-61
2023/06/26 00:16:51;;;;;;;13.40;12.00;;;21.90;99.90;;;;;;5046764;28;20268;-61
2023/06/26 00:19:17;;;;;;;15.37;11.73;;;21.80;99.90;;;;;;5046325;28;20659;-61
2023/06/26 00:21:46;;;;;;;14.33;11.90;;;21.80;99.90;;;;;;5046596;28;20217;-60
2023/06/26 00:24:12;;;;;;;13.77;12.07;;;21.70;99.90;;;;;;5046607;28;20209;-61
2023/06/26 00:26:37;;;;;;;12.40;11.07;;;21.70;99.90;;;;;;5044666;28;20221;-61
2023/06/26 00:29:03;;;;;;;13.40;12.00;;;21.60;99.90;;;;;;5047190;28;20210;-61
2023/06/26 00:31:28;;;;;;;13.00;11.73;;;21.70;99.90;;;;;;5047211;28;20225;-61
2023/06/26 00:33:54;;;;;;;13.73;11.97;;;21.60;99.90;;;;;;5047288;28;20560;-61
2023/06/26 00:36:19;;;;;;;14.13;11.77;;;21.60;99.90;;;;;;5046945;28;20197;-61
2023/06/26 00:38:45;;;;;;;14.20;12.13;;;21.50;99.90;;;;;;5047060;28;20707;-61
2023/06/26 00:41:12;;;;;;;12.63;11.40;;;21.50;99.90;;;;;;5044771;28;20217;-61
2023/06/26 00:43:38;;;;;;;11.77;10.67;;;21.40;99.90;;;;;;5046281;28;20220;-62
2023/06/26 00:46:03;;;;;;;15.33;11.80;;;21.40;99.90;;;;;;5050922;28;20267;-61
2023/06/26 00:48:30;;;;;;;13.23;10.90;;;21.40;99.90;;;;;;5051306;28;20219;-62
2023/06/26 00:50:56;;;;;;;14.73;12.07;;;21.50;99.90;;;;;;5046313;28;20658;-61
2023/06/26 00:53:22;;;;;;;24.57;13.90;;;21.40;99.90;;;;;;5045043;28;20195;-61
2023/06/26 00:55:47;;;;;;;14.43;12.80;;;21.40;99.90;;;;;;5047173;28;20439;-61
2023/06/26 00:58:13;;;;;;;12.60;11.33;;;21.40;99.90;;;;;;5047977;28;20218;-61
2023/06/26 01:00:39;;;;;;;13.93;11.67;;;21.30;99.90;;;;;;5051008;28;20565;-62
2023/06/26 01:03:04;;;;;;;11.57;10.57;;;21.20;99.90;;;;;;5050548;28;20190;-61
2023/06/26 01:05:30;;;;;;;12.13;10.87;;;21.20;99.90;;;;;;5050950;28;20790;-61
2023/06/26 01:07:58;;;;;;;14.43;11.03;;;21.20;99.90;;;;;;5048145;28;20217;-61
2023/06/26 01:10:24;;;;;;;11.30;10.23;;;21.20;99.90;;;;;;5049721;28;20231;-61
2023/06/26 01:12:50;;;;;;;13.48;11.30;;;21.30;99.90;;;;;;5049710;28;20283;-61
2023/06/26 01:15:15;;;;;;;11.77;10.50;;;21.30;99.90;;;;;;5049378;28;20221;-61
2023/06/26 01:17:44;;;;;;;16.17;10.43;;;21.30;99.90;;;;;;5049233;28;20206;-61
2023/06/26 01:20:10;;;;;;;11.27;10.17;;;21.40;99.90;;;;;;5045997;28;20201;-61
2023/06/26 01:22:48;;;;;;;10.93;9.77;;;21.40;99.90;;;;;;5052688;28;20202;-61
2023/06/26 01:25:28;;;;;;;13.33;11.17;;;21.40;99.90;;;;;;5049547;28;20264;-61
2023/06/26 01:27:55;;;;;;;10.83;9.73;;;21.40;99.90;;;;;;5049614;28;20217;-61
2023/06/26 01:30:21;;;;;;;12.17;10.67;;;21.40;99.90;;;;;;5049059;28;20206;-61
2023/06/26 01:32:48;;;;;;;13.30;10.50;;;21.40;99.90;;;;;;5049554;28;20218;-61
2023/06/26 01:35:15;;;;;;;11.57;10.37;;;21.40;99.90;;;;;;5047951;28;21017;-61
2023/06/26 01:37:40;;;;;;;11.93;10.77;;;21.40;99.90;;;;;;5049954;28;20244;-61
2023/06/26 01:40:06;;;;;;;10.60;9.63;;;21.40;99.90;;;;;;5050211;28;21124;-60
2023/06/26 01:42:33;;;;;;;11.47;9.83;;;21.40;99.90;;;;;;5049924;28;20728;-60
2023/06/26 01:45:09;;;;;;;10.90;9.80;;;21.40;99.90;;;;;;5047116;28;20675;-61
2023/06/26 01:47:37;;;;;;;11.07;10.03;;;21.40;99.90;;;;;;5051260;28;20610;-61
2023/06/26 01:50:09;;;;;;;10.90;9.83;;;21.40;99.90;;;;;;5046590;28;20202;-63
2023/06/26 01:52:53;;;;;;;12.73;9.77;;;21.40;99.90;;;;;;5047567;28;20198;-64
2023/06/26 01:55:47;;;;;;;10.33;9.33;;;21.40;99.90;;;;;;5049764;28;20558;-70
2023/06/26 01:58:13;;;;;;;14.77;10.20;;;21.40;99.90;;;;;;5049205;28;20608;-62
2023/06/26 02:00:40;;;;;;;11.20;10.03;;;21.30;99.90;;;;;;5054196;28;21174;-62
2023/06/26 02:03:06;;;;;;;10.07;9.17;;;21.30;99.90;;;;;;5050665;28;20931;-62
2023/06/26 02:05:32;;;;;;;10.93;9.93;;;21.30;99.90;;;;;;5050122;28;20734;-61
2023/06/26 02:07:58;;;;;;;11.40;9.77;;;21.30;99.90;;;;;;5049456;28;20209;-61
2023/06/26 02:10:23;;;;;;;10.03;9.13;;;21.30;99.90;;;;;;5048757;28;20704;-61
2023/06/26 02:12:49;;;;;;;11.63;10.53;;;21.30;99.90;;;;;;5047078;28;20237;-61
2023/06/26 02:15:14;;;;;;;10.80;9.77;;;21.30;99.90;;;;;;5048818;28;20200;-61
2023/06/26 02:17:40;;;;;;;13.73;11.43;;;21.40;99.90;;;;;;5048520;28;20198;-61
2023/06/26 02:20:09;;;;;;;11.47;10.27;;;21.30;99.90;;;;;;5049230;28;20209;-61
2023/06/26 02:22:34;;;;;;;13.13;11.40;;;21.30;99.90;;;;;;5048687;28;20775;-61
2023/06/26 02:25:00;;;;;;;13.53;10.97;;;21.30;99.90;;;;;;5046982;28;20202;-61
2023/06/26 02:27:25;;;;;;;11.77;10.63;;;21.30;99.90;;;;;;5052365;28;20554;-60
2023/06/26 02:29:51;;;;;;;12.10;10.73;;;21.30;99.90;;;;;;5045858;28;20289;-60
2023/06/26 02:32:16;;;;;;;12.77;10.77;;;21.30;99.90;;;;;;5051382;28;20202;-60
2023/06/26 02:34:42;;;;;;;11.90;10.77;;;21.30;99.90;;;;;;5048093;28;20194;-60
2023/06/26 02:37:07;;;;;;;12.97;11.57;;;21.30;99.90;;;;;;5049664;28;20557;-60
2023/06/26 02:39:34;;;;;;;12.57;11.30;;;21.30;99.90;;;;;;5045950;28;20704;-60
2023/06/26 02:42:00;;;;;;;11.63;9.97;;;21.30;99.90;;;;;;5049228;28;20464;-60
2023/06/26 02:44:25;;;;;;;11.10;10.00;;;21.30;99.90;;;;;;5047137;28;20209;-60
2023/06/26 02:46:51;;;;;;;11.77;10.67;;;21.20;99.90;;;;;;5048452;28;20202;-60
2023/06/26 02:49:16;;;;;;;11.40;10.33;;;21.20;99.90;;;;;;5048108;28;20222;-61
2023/06/26 02:51:42;;;;;;;12.07;10.87;;;21.20;99.90;;;;;;5046804;28;20190;-60
2023/06/26 02:54:07;;;;;;;12.23;10.73;;;21.10;99.90;;;;;;5052302;28;20213;-60
2023/06/26 02:56:33;;;;;;;12.43;10.70;;;21.10;99.90;;;;;;5045488;28;20280;-60
2023/06/26 02:58:58;;;;;;;11.87;10.73;;;21.10;99.90;;;;;;5048627;28;20240;-60
2023/06/26 03:01:24;;;;;;;11.77;10.60;;;21.10;99.90;;;;;;5048802;28;20572;-60
2023/06/26 03:03:50;;;;;;;12.47;10.50;;;21.00;99.90;;;;;;5048254;28;20205;-60
2023/06/26 03:06:15;;;;;;;12.57;11.30;;;21.00;99.90;;;;;;5046177;28;20266;-60
2023/06/26 03:08:41;;;;;;;12.33;11.03;;;21.00;99.90;;;;;;5047552;28;20261;-60
2023/06/26 03:11:08;;;;;;;12.10;10.97;;;21.00;99.90;;;;;;5050780;28;20202;-60
2023/06/26 03:13:35;;;;;;;12.47;11.37;;;21.00;99.90;;;;;;5052316;28;20210;-60
2023/06/26 03:16:00;;;;;;;12.63;11.33;;;21.00;99.90;;;;;;5046443;28;20741;-60
2023/06/26 03:18:26;;;;;;;12.17;10.97;;;21.00;99.90;;;;;;5047048;28;20210;-60
2023/06/26 03:20:54;;;;;;;14.17;11.93;;;21.00;99.90;;;;;;5049576;28;20675;-61
2023/06/26 03:23:20;;;;;;;13.30;11.33;;;21.00;99.90;;;;;;5045911;28;20545;-62
2023/06/26 03:25:46;;;;;;;12.80;11.50;;;21.00;99.90;;;;;;5048165;28;20225;-61
2023/06/26 03:28:11;;;;;;;13.23;11.63;;;20.90;99.90;;;;;;5047093;28;20210;-62
2023/06/26 03:30:37;;;;;;;12.77;11.43;;;20.90;99.90;;;;;;5047361;28;20193;-60
2023/06/26 03:33:02;;;;;;;11.97;10.77;;;21.00;99.90;;;;;;5047685;28;20245;-61
2023/06/26 03:35:28;;;;;;;12.87;11.77;;;21.00;99.90;;;;;;5052367;28;20212;-60
2023/06/26 03:37:54;;;;;;;13.80;12.30;;;21.10;99.90;;;;;;5057750;28;20206;-60
2023/06/26 03:40:19;;;;;;;13.93;12.53;;;21.10;99.90;;;;;;5057439;28;20807;-60
2023/06/26 03:42:45;;;;;;;13.23;11.03;;;21.10;99.90;;;;;;5055646;28;20237;-60
2023/06/26 03:45:10;;;;;;;16.67;12.73;;;21.10;99.90;;;;;;5057305;28;20196;-60
2023/06/26 03:47:36;;;;;;;12.93;11.83;;;21.10;99.90;;;;;;5056899;28;20217;-60
2023/06/26 03:50:01;;;;;;;12.00;10.90;;;21.10;99.90;;;;;;5057045;28;20201;-60
2023/06/26 03:52:27;;;;;;;12.40;11.30;;;21.10;99.90;;;;;;5057308;28;20907;-60
2023/06/26 03:54:52;;;;;;;13.93;12.47;;;21.10;99.90;;;;;;5054975;28;20195;-61
2023/06/26 03:57:18;;;;;;;11.83;10.60;;;21.10;99.90;;;;;;5056828;28;20198;-60
2023/06/26 03:59:43;;;;;;;12.47;11.20;;;21.10;99.90;;;;;;5056916;28;20308;-60
2023/06/26 04:02:09;;;;;;;12.07;10.97;;;21.10;99.90;;;;;;5057185;28;20193;-60
2023/06/26 04:04:34;;;;;;;13.37;12.07;;;21.10;99.90;;;;;;5056746;28;20716;-64
2023/06/26 04:07:00;;;;;;;13.10;11.90;;;21.10;99.90;;;;;;5056797;28;20205;-64
2023/06/26 04:09:26;;;;;;;13.23;12.13;;;21.10;99.90;;;;;;5054696;28;20206;-62
2023/06/26 04:11:51;;;;;;;14.57;12.90;;;21.10;99.90;;;;;;5056756;28;20236;-62
2023/06/26 04:14:17;;;;;;;12.60;11.40;;;21.10;99.90;;;;;;5056906;28;20538;-63
2023/06/26 04:16:43;;;;;;;13.97;12.57;;;21.20;99.90;;;;;;5056714;28;20663;-69
2023/06/26 04:19:09;;;;;;;12.20;11.10;;;21.20;99.90;;;;;;5061541;28;20211;-64
2023/06/26 04:21:35;;;;;;;12.17;11.07;;;21.30;99.90;;;;;;5063884;28;20576;-63
2023/06/26 04:24:01;;;;;;;12.73;11.63;;;21.30;99.90;;;;;;5063798;28;20690;-63
2023/06/26 04:26:28;;;;;;;12.77;11.57;;;21.30;99.90;;;;;;5064617;28;20227;-65
2023/06/26 04:28:54;;;;;;;11.87;10.77;;;21.30;99.90;;;;;;5064898;28;20219;-62
2023/06/26 04:31:20;;;;;;;11.10;10.10;;;21.30;99.90;;;;;;5064302;28;20197;-64
2023/06/26 04:33:50;;;;;;;12.27;11.10;;;21.30;99.90;;;;;;5066007;28;20266;-62
2023/06/26 04:36:16;;;;;;;10.60;9.60;;;21.30;99.90;;;;;;5056707;28;20204;-61
2023/06/26 04:38:42;;;;;;;13.13;10.27;;;21.30;99.90;;;;;;5071078;28;20229;-62
2023/06/26 04:41:07;;;;;;;11.70;10.70;;;21.30;99.90;;;;;;5070850;28;20193;-63
2023/06/26 04:43:33;;;;;;;11.73;10.60;;;21.30;99.90;;;;;;5069757;28;20557;-63
2023/06/26 04:45:58;;;;;;;12.13;11.13;;;21.40;99.90;;;;;;5069193;28;20289;-63
2023/06/26 04:48:24;;;;;;;11.67;10.67;;;21.40;99.90;;;;;;5066870;28;20239;-62
2023/06/26 04:50:53;;;;;;;11.67;10.47;;;21.40;99.90;;;;;;5062846;28;20829;-63
2023/06/26 04:53:19;;;;;;;12.10;11.00;;;21.50;99.90;;;;;;5064383;28;20206;-61
2023/06/26 04:55:45;;;;;;;13.17;11.77;;;21.50;99.90;;;;;;5049977;28;20288;-63
2023/06/26 04:58:10;;;;;;;12.80;11.33;;;21.50;99.90;;;;;;5047773;28;20289;-63
2023/06/26 05:00:36;;;;;;;12.33;11.23;;;21.60;99.90;;;;;;5050167;28;20209;-62
2023/06/26 05:03:01;;;;;;;12.27;10.97;;;21.70;99.90;;;;;;5047183;28;22859;-64
2023/06/26 05:05:28;;;;;;;10.67;9.77;;;21.80;99.90;;;;;;5049296;28;20206;-63
2023/06/26 05:07:56;;;;;;;11.70;10.50;;;21.80;99.90;;;;;;5055314;28;20565;-63
2023/06/26 05:10:22;;;;;;;13.47;10.93;;;21.90;99.90;;;;;;5049987;28;20198;-63
2023/06/26 05:12:48;;;;;;;11.20;10.20;;;22.00;99.90;;;;;;5059794;28;20198;-63
2023/06/26 05:15:13;;;;;;;11.33;10.30;;;22.10;99.90;;;;;;5059818;28;20194;-62
2023/06/26 05:17:39;;;;;;;11.57;10.47;;;22.10;99.90;;;;;;5059485;28;20209;-63
2023/06/26 05:20:05;;;;;;;12.40;11.20;;;22.10;99.90;;;;;;5056474;28;20261;-63
2023/06/26 05:22:32;;;;;;;12.43;11.33;;;22.10;99.90;;;;;;5059590;28;20199;-63
2023/06/26 05:25:00;;;;;;;10.52;9.52;;;22.20;99.90;;;;;;5060294;28;20331;-63
2023/06/26 05:27:26;;;;;;;12.10;11.07;;;22.20;99.90;;;;;;5059511;28;20210;-64
2023/06/26 05:29:52;;;;;;;11.40;10.27;;;22.20;99.90;;;;;;5059651;28;20224;-64
2023/06/26 05:32:18;;;;;;;12.20;11.13;;;22.20;99.90;;;;;;5057747;28;20206;-65
2023/06/26 05:34:47;;;;;;;12.57;11.30;;;22.30;99.90;;;;;;5059346;28;20691;-64
2023/06/26 05:37:19;;;;;;;12.43;11.27;;;22.20;99.90;;;;;;5059471;28;20198;-65
2023/06/26 05:39:44;;;;;;;13.23;11.90;;;22.30;99.90;;;;;;5059446;28;20218;-73
2023/06/26 05:42:11;;;;;;;11.37;10.27;;;22.20;99.90;;;;;;5057684;28;20260;-71
2023/06/26 05:44:36;;;;;;;12.73;11.43;;;22.30;99.90;;;;;;5059194;28;20198;-75
2023/06/26 05:47:02;;;;;;;11.90;10.90;;;22.30;99.90;;;;;;5059174;28;20201;-72
2023/06/26 05:49:27;;;;;;;12.27;11.07;;;22.30;99.90;;;;;;5059492;28;20759;-72
2023/06/26 05:51:53;;;;;;;13.30;11.73;;;22.40;99.90;;;;;;5059656;28;20186;-71
2023/06/26 05:54:19;;;;;;;11.70;10.70;;;22.50;99.90;;;;;;5057463;28;20734;-71
2023/06/26 05:56:46;;;;;;;13.00;11.70;;;22.60;99.90;;;;;;5066348;28;20220;-73
2023/06/26 05:59:13;;;;;;;14.07;11.27;;;22.70;99.90;;;;;;5068809;28;20668;-75
2023/06/26 06:01:39;;;;;;;14.93;10.50;;;22.70;99.90;;;;;;5067206;28;20210;-75
2023/06/26 06:04:04;;;;;;;12.33;11.13;;;22.70;99.90;;;;;;5067101;28;20216;-79
2023/06/26 06:06:30;;;;;;;12.50;11.30;;;22.60;99.90;;;;;;5064055;28;20206;-71
2023/06/26 06:08:55;;;;;;;12.27;11.10;;;22.70;99.90;;;;;;5065835;28;20240;-73
2023/06/26 06:11:22;;;;;;;25.97;15.23;;;22.80;99.90;;;;;;5064291;28;20217;-75
2023/06/26 06:13:47;;;;;;;18.80;11.63;;;22.90;99.90;;;;;;5059665;28;20299;-78
2023/06/26 06:16:13;;;;;;;14.90;13.30;;;22.70;99.90;;;;;;5057469;28;20660;-72
2023/06/26 06:18:39;;;;;;;12.57;11.30;;;22.50;99.90;;;;;;5058618;28;20732;-72
2023/06/26 06:21:04;;;;;;;13.40;12.13;;;22.10;99.90;;;;;;5050134;28;20781;-72
2023/06/26 06:23:30;;;;;;;12.63;11.47;;;21.80;99.90;;;;;;5047609;28;20206;-72
2023/06/26 06:25:55;;;;;;;13.07;11.83;;;21.60;99.90;;;;;;5048739;28;20627;-72
2023/06/26 06:28:23;;;;;;;10.53;9.53;;;21.40;99.90;;;;;;5048621;28;20685;-72
2023/06/26 06:30:48;;;;;;;11.80;10.23;;;21.20;99.90;;;;;;5048367;28;20190;-70
2023/06/26 06:33:14;;;;;;;10.33;9.17;;;21.10;99.90;;;;;;5046658;28;20261;-70
2023/06/26 06:35:40;;;;;;;10.43;9.43;;;21.00;99.90;;;;;;5057522;28;20229;-70
2023/06/26 06:38:05;;;;;;;10.87;9.87;;;21.00;99.90;;;;;;5057081;28;20209;-71
2023/06/26 06:40:31;;;;;;;10.90;9.80;;;20.80;99.90;;;;;;5069131;28;20214;-76
2023/06/26 06:42:56;;;;;;;8.70;7.90;;;20.90;99.90;;;;;;5068627;28;20319;-80
2023/06/26 06:45:22;;;;;;;8.47;7.63;;;21.10;99.90;;;;;;5067588;28;20290;-77
2023/06/26 06:47:47;;;;;;;12.97;8.07;;;21.00;99.90;;;;;;5063156;28;20212;-74
2023/06/26 06:50:13;;;;;;;8.37;7.57;;;21.00;99.90;;;;;;5065706;28;20236;-75
2023/06/26 06:52:40;;;;;;;10.07;9.07;;;21.20;99.90;;;;;;5066064;28;20280;-76
2023/06/26 06:55:08;;;;;;;8.60;7.90;;;21.30;99.90;;;;;;5065988;28;20303;-75
2023/06/26 06:57:37;;;;;;;10.47;8.13;;;21.50;99.90;;;;;;5065005;28;20799;-74
2023/06/26 07:00:11;;;;;;;7.90;7.13;;;21.60;99.90;;;;;;5064709;28;20605;-74
2023/06/26 07:02:37;;;;;;;8.13;7.33;;;21.70;99.90;;;;;;5059185;28;20293;-74
2023/06/26 07:05:03;;;;;;;8.30;7.50;;;21.80;99.90;;;;;;5055318;28;20196;-73
2023/06/26 07:07:31;;;;;;;8.17;7.47;;;21.70;99.90;;;;;;5060878;28;20202;-70
2023/06/26 07:10:02;;;;;;;8.20;7.40;;;21.50;99.90;;;;;;5060554;28;20655;-77
2023/06/26 07:12:28;;;;;;;9.40;7.53;;;21.30;99.90;;;;;;5058180;28;20946;-75
2023/06/26 07:14:54;;;;;;;7.83;6.97;;;21.10;99.90;;;;;;5057739;28;20198;-75
2023/06/26 07:17:21;;;;;;;7.47;6.77;;;21.50;99.90;;;;;;5055725;28;20204;-72
2023/06/26 07:19:46;;;;;;;8.17;7.27;;;22.00;99.90;;;;;;5052775;28;20198;-72
2023/06/26 07:22:12;;;;;;;7.97;7.30;;;22.30;99.90;;;;;;5056034;28;20667;-73
2023/06/26 07:24:37;;;;;;;7.37;6.77;;;22.40;99.90;;;;;;5066265;28;20205;-71
2023/06/26 07:27:03;;;;;;;9.20;7.03;;;22.40;99.90;;;;;;5068821;28;20195;-79
2023/06/26 07:29:29;;;;;;;7.90;6.93;;;22.50;99.90;;;;;;5066655;28;20201;-74
2023/06/26 07:31:54;;;;;;;7.07;6.37;;;22.50;99.90;;;;;;5060589;28;20193;-76
2023/06/26 07:34:20;;;;;;;7.60;6.93;;;22.30;99.90;;;;;;5055778;28;20928;-76
2023/06/26 07:36:45;;;;;;;10.02;7.00;;;22.30;99.90;;;;;;5065339;28;20197;-76
2023/06/26 07:39:11;;;;;;;7.32;6.63;;;22.60;99.90;;;;;;5060255;28;20799;-76
2023/06/26 07:41:36;;;;;;;6.80;6.15;;;23.10;99.90;;;;;;5057347;28;20248;-77
2023/06/26 07:44:02;;;;;;;6.35;5.55;;;23.20;99.90;;;;;;5060879;28;20678;-74
2023/06/26 07:46:27;;;;;;;12.18;6.82;;;23.00;99.90;;;;;;5052433;28;20206;-74
2023/06/26 07:48:54;;;;;;;11.45;6.63;;;23.50;99.90;;;;;;5054142;28;21059;-74
2023/06/26 07:51:19;;;;;;;15.57;7.60;;;23.50;99.90;;;;;;5048913;28;20715;-74
2023/06/26 07:53:45;;;;;;;14.20;7.50;;;23.40;99.90;;;;;;5055463;28;20190;-71
2023/06/26 07:56:11;;;;;;;14.10;7.15;;;23.60;99.90;;;;;;5047733;28;20306;-70
2023/06/26 07:58:36;;;;;;;7.43;6.72;;;23.70;99.90;;;;;;5045719;28;20194;-71
2023/06/26 08:01:01;;;;;;;12.83;6.73;;;23.80;99.90;;;;;;5051368;28;20198;-76
2023/06/26 08:03:27;;;;;;;6.75;6.13;;;24.00;99.90;;;;;;5046843;28;20196;-72
2023/06/26 08:05:53;;;;;;;6.05;5.60;;;24.20;99.90;;;;;;5046885;28;20214;-73
2023/06/26 08:08:18;;;;;;;7.35;6.63;;;24.40;99.90;;;;;;5046150;28;20252;-72
2023/06/26 08:10:43;;;;;;;9.50;6.97;;;24.40;99.90;;;;;;5046760;28;20256;-71
2023/06/26 08:13:09;;;;;;;7.32;6.30;;;24.30;99.90;;;;;;5047627;28;20538;-74
2023/06/26 08:15:35;;;;;;;6.40;5.80;;;24.20;99.90;;;;;;5046763;28;20235;-76
2023/06/26 08:18:00;;;;;;;6.55;5.68;;;24.60;99.90;;;;;;5047170;28;20199;-74
2023/06/26 08:20:26;;;;;;;7.25;5.47;;;24.60;99.90;;;;;;5046979;28;20211;-71
2023/06/26 08:22:53;;;;;;;6.40;5.85;;;24.70;99.90;;;;;;5046744;28;20195;-76
2023/06/26 08:25:18;;;;;;;6.80;6.07;;;24.80;99.90;;;;;;5048167;28;20373;-73
2023/06/26 08:27:44;;;;;;;5.60;5.10;;;24.70;99.90;;;;;;5046122;28;20242;-75
2023/06/26 08:30:10;;;;;;;5.65;5.05;;;24.90;99.90;;;;;;5059377;28;20202;-73
2023/06/26 08:32:35;;;;;;;6.70;5.40;;;25.00;99.90;;;;;;5050618;28;20604;-73
2023/06/26 08:35:01;;;;;;;5.82;5.25;;;25.20;98.90;;;;;;5062070;28;20290;-74
2023/06/26 08:37:26;;;;;;;5.25;4.85;;;25.50;99.30;;;;;;5048542;28;20658;-78
2023/06/26 08:39:52;;;;;;;5.80;5.18;;;25.60;99.70;;;;;;5057670;28;20226;-74
2023/06/26 08:42:17;;;;;;;5.53;5.07;;;25.60;99.90;;;;;;5064456;28;20204;-74
2023/06/26 08:44:43;;;;;;;5.30;4.90;;;25.70;98.30;;;;;;5061471;28;20697;-77
2023/06/26 08:47:12;;;;;;;5.60;5.10;;;25.80;97.80;;;;;;5060098;28;20212;-77
2023/06/26 08:50:01;;;;;;;6.10;5.03;;;25.80;97.20;;;;;;5044251;28;20663;-72
2023/06/26 08:52:33;;;;;;;5.60;4.88;;;25.70;97.40;;;;;;5046498;28;20214;-77
2023/06/26 08:55:01;;;;;;;6.00;4.63;;;25.90;96.50;;;;;;5045521;28;20637;-77
2023/06/26 08:57:30;;;;;;;5.05;4.22;;;25.80;98.60;;;;;;5048449;28;20212;-77
2023/06/26 08:59:56;;;;;;;5.88;4.72;;;25.80;97.70;;;;;;5043515;28;20227;-73
2023/06/26 09:02:21;;;;;;;5.03;4.63;;;25.80;96.80;;;;;;5048205;28;20219;-75
2023/06/26 09:04:49;;;;;;;5.47;4.68;;;26.00;96.40;;;;;;5044424;28;20609;-76
2023/06/26 09:07:14;;;;;;;6.28;4.65;;;26.30;94.90;;;;;;5045673;28;20198;-77
2023/06/26 09:09:40;;;;;;;5.28;4.78;;;26.40;95.70;;;;;;5046865;28;20215;-74
2023/06/26 09:12:06;;;;;;;5.75;5.32;;;26.30;96.50;;;;;;5046732;28;20208;-82
2023/06/26 09:14:32;;;;;;;6.32;5.43;;;26.20;95.80;;;;;;5043940;28;20208;-73
2023/06/26 09:16:57;;;;;;;6.15;5.55;;;26.30;97.00;;;;;;5054055;28;20198;-77
2023/06/26 09:19:23;;;;;;;4.90;4.40;;;26.20;96.90;;;;;;5061315;28;20238;-78
2023/06/26 09:21:50;;;;;;;6.80;5.25;;;26.20;94.90;;;;;;5054185;28;20298;-79
2023/06/26 09:24:16;;;;;;;5.25;4.80;;;26.10;97.40;;;;;;5055831;28;20202;-77
2023/06/26 09:26:42;;;;;;;5.30;4.80;;;26.10;95.20;;;;;;5053559;28;20243;-81
2023/06/26 09:29:09;;;;;;;6.38;5.57;;;26.20;95.90;;;;;;5047385;28;20223;-77
2023/06/26 09:31:38;;;;;;;6.57;6.07;;;26.30;96.90;;;;;;5047674;28;20329;-77
2023/06/26 09:34:04;;;;;;;5.20;4.70;;;26.00;96.20;;;;;;5046689;28;20570;-72
2023/06/26 09:36:36;;;;;;;5.40;5.00;;;26.40;95.40;;;;;;5048460;28;20299;-73
2023/06/26 09:39:04;;;;;;;5.60;5.10;;;26.40;95.30;;;;;;5046977;28;20228;-77
2023/06/26 09:41:30;;;;;;;5.03;4.68;;;26.40;96.30;;;;;;5048595;28;20240;-75
2023/06/26 09:44:02;;;;;;;4.90;4.50;;;26.60;94.40;;;;;;5047964;28;20205;-75
2023/06/26 09:46:29;;;;;;;5.03;4.63;;;26.80;94.90;;;;;;5046683;28;20287;-75
2023/06/26 09:49:05;;;;;;;4.97;4.57;;;26.90;94.10;;;;;;5050733;28;20704;-76
2023/06/26 09:51:32;;;;;;;7.20;5.47;;;26.90;93.80;;;;;;5053330;28;20221;-74
2023/06/26 09:54:02;;;;;;;5.53;4.95;;;26.90;94.60;;;;;;5046672;28;20200;-72
2023/06/26 09:56:29;;;;;;;5.50;5.03;;;26.90;95.40;;;;;;5055120;28;20205;-75
2023/06/26 09:59:00;;;;;;;5.57;4.38;;;27.00;94.10;;;;;;5064105;28;20238;-76
2023/06/26 10:01:26;;;;;;;5.28;4.88;;;27.10;93.90;;;;;;5061532;28;20200;-77
2023/06/26 10:03:53;;;;;;;5.18;4.78;;;27.20;94.20;;;;;;5058202;28;20202;-70
2023/06/26 10:06:36;;;;;;;4.60;4.20;;;27.30;93.40;;;;;;5049415;28;20418;-69
2023/06/26 10:09:03;;;;;;;5.70;5.00;;;27.50;93.50;;;;;;5058879;28;20672;-78
2023/06/26 10:11:41;;;;;;;6.88;4.93;;;27.60;93.30;;;;;;5057459;28;20218;-74
2023/06/26 10:14:08;;;;;;;6.30;4.80;;;27.70;93.30;;;;;;5058556;28;21057;-74
2023/06/26 10:16:36;;;;;;;4.60;4.13;;;27.90;92.30;;;;;;5058889;28;20425;-74
2023/06/26 10:19:06;;;;;;;4.80;4.38;;;27.90;91.70;;;;;;5058651;28;20206;-73
2023/06/26 10:21:34;;;;;;;6.38;4.65;;;27.80;91.50;;;;;;5056752;28;20849;-74
2023/06/26 10:24:00;;;;;;;5.90;4.63;;;27.80;92.30;;;;;;5058857;28;20305;-73
2023/06/26 10:26:28;;;;;;;6.85;4.65;;;27.90;92.10;;;;;;5058731;28;20198;-73
2023/06/26 10:28:54;;;;;;;4.78;4.38;;;28.10;91.90;;;;;;5056859;28;20288;-74
2023/06/26 10:31:23;;;;;;;4.85;4.45;;;28.40;91.70;;;;;;5058012;28;20202;-73
2023/06/26 10:33:49;;;;;;;5.30;4.85;;;28.40;91.40;;;;;;5058633;28;20346;-73
2023/06/26 10:36:18;;;;;;;4.40;3.83;;;28.30;91.10;;;;;;5060038;28;20221;-70
2023/06/26 10:38:50;;;;;;;5.00;4.50;;;28.50;89.20;;;;;;5056699;28;20236;-74
2023/06/26 10:41:20;;;;;;;4.28;3.88;;;28.60;88.00;;;;;;5061010;28;20238;-72
2023/06/26 10:43:49;;;;;;;4.15;3.75;;;28.50;90.70;;;;;;5055208;28;20209;-72
2023/06/26 10:46:19;;;;;;;6.10;4.03;;;28.50;90.10;;;;;;5056504;28;20210;-72
2023/06/26 10:49:05;;;;;;;5.20;4.80;;;28.70;91.30;;;;;;5061708;28;20213;-71
2023/06/26 10:51:31;;;;;;;4.70;4.18;;;28.70;89.40;;;;;;5056547;28;20202;-70
2023/06/26 10:53:57;;;;;;;4.80;4.40;;;28.90;86.50;;;;;;5051854;28;20274;-73
2023/06/26 10:56:45;;;;;;;5.15;4.30;;;28.90;87.30;;;;;;5048992;28;20801;-73
2023/06/26 10:59:20;;;;;;;5.07;4.68;;;29.00;86.20;;;;;;5044616;28;20206;-71
2023/06/26 11:01:59;;;;;;;4.13;3.83;;;28.90;85.40;;;;;;5048777;28;20741;-70
2023/06/26 11:04:44;;;;;;;4.78;4.38;;;29.10;84.10;;;;;;5049018;28;20735;-70
2023/06/26 11:07:23;;;;;;;4.82;4.25;;;29.40;81.90;;;;;;5055312;28;20209;-74
2023/06/26 11:10:00;;;;;;;5.22;4.75;;;29.40;83.80;;;;;;5057649;28;20703;-68
2023/06/26 11:12:41;;;;;;;5.15;4.75;;;29.50;80.60;;;;;;5056216;28;20695;-70
2023/06/26 11:15:12;;;;;;;7.95;5.05;;;29.70;84.00;;;;;;5057770;28;20224;-68
2023/06/26 11:17:38;;;;;;;5.10;4.70;;;30.10;79.90;;;;;;5057534;28;20691;-73
2023/06/26 11:20:07;;;;;;;5.57;5.07;;;30.30;84.70;;;;;;5057445;28;20418;-72
2023/06/26 11:22:35;;;;;;;6.03;4.13;;;30.60;79.10;;;;;;5057305;28;20249;-72
2023/06/26 11:25:01;;;;;;;4.85;4.45;;;30.90;77.20;;;;;;5057451;28;20194;-72
2023/06/26 11:27:43;;;;;;;5.30;4.80;;;31.00;78.20;;;;;;5056494;28;20198;-73
2023/06/26 11:30:10;;;;;;;4.93;4.53;;;30.70;77.50;;;;;;5049249;28;20206;-73
2023/06/26 11:32:39;;;;;;;4.53;4.15;;;30.30;76.90;;;;;;5056345;28;20194;-73
2023/06/26 11:35:05;;;;;;;8.25;5.47;;;30.50;78.40;;;;;;5057761;28;20676;-70
2023/06/26 11:37:32;;;;;;;4.65;4.15;;;30.70;79.30;;;;;;5057205;28;20205;-70
2023/06/26 11:39:57;;;;;;;5.22;4.72;;;31.20;74.20;;;;;;5057637;28;20214;-71
2023/06/26 11:42:25;;;;;;;5.22;4.82;;;31.50;72.80;;;;;;5053996;28;20192;-73
2023/06/26 11:44:51;;;;;;;5.82;5.32;;;31.40;72.90;;;;;;5057075;28;20232;-73
2023/06/26 11:47:21;;;;;;;5.70;5.10;;;31.50;73.00;;;;;;5057491;28;20202;-72
2023/06/26 11:49:47;;;;;;;4.63;4.22;;;31.80;71.70;;;;;;5057317;28;20210;-72
2023/06/26 11:52:14;;;;;;;4.95;4.45;;;32.30;69.50;;;;;;5055865;28;20198;-72
2023/06/26 11:54:40;;;;;;;5.53;5.07;;;32.50;68.20;;;;;;5057481;28;20202;-72
2023/06/26 11:57:05;;;;;;;4.25;3.83;;;32.50;67.60;;;;;;5057036;28;20205;-72
2023/06/26 11:59:39;;;;;;;4.82;4.43;;;32.30;67.70;;;;;;5057156;28;20190;-71
2023/06/26 12:02:15;;;;;;;4.50;4.20;;;32.60;66.90;;;;;;5053521;28;20208;-72
2023/06/26 12:04:42;;;;;;;4.90;4.45;;;32.80;64.80;;;;;;5057101;28;20209;-74
2023/06/26 12:07:09;;;;;;;7.25;5.05;;;32.80;69.10;;;;;;5057185;28;20297;-74
2023/06/26 12:09:47;;;;;;;5.50;4.78;;;32.70;69.00;;;;;;5054927;28;20232;-69
2023/06/26 12:12:16;;;;;;;5.20;4.80;;;32.90;66.50;;;;;;5056535;28;20684;-71
2023/06/26 12:14:41;;;;;;;6.55;5.20;;;33.00;64.20;;;;;;5058523;28;20198;-70
2023/06/26 12:17:10;;;;;;;6.22;5.72;;;32.80;65.10;;;;;;5054158;28;20681;-71
2023/06/26 12:19:42;;;;;;;4.95;4.55;;;32.70;67.10;;;;;;5063466;28;20246;-72
2023/06/26 12:22:09;;;;;;;5.93;5.35;;;32.70;63.10;;;;;;5053432;28;20560;-72
2023/06/26 12:24:38;;;;;;;5.28;4.88;;;33.60;59.60;;;;;;5055238;28;20262;-73
2023/06/26 12:27:11;;;;;;;7.13;5.18;;;33.10;61.50;;;;;;5043644;28;20201;-70
2023/06/26 12:29:39;;;;;;;5.40;5.00;;;32.70;64.50;;;;;;5047460;28;20210;-72
2023/06/26 12:32:09;;;;;;;5.60;5.10;;;33.20;61.10;;;;;;5047514;28;20280;-69
2023/06/26 12:34:37;;;;;;;4.90;4.53;;;33.60;60.80;;;;;;5046463;28;20205;-70
2023/06/26 12:37:10;;;;;;;5.63;4.97;;;33.40;60.20;;;;;;5049024;28;20938;-70